createdAt,value
2023-03-05T00:00:50.904Z,9.35714
2023-03-05T00:01:50.911Z,8.5
2023-03-05T00:02:51.046Z,8.71429
2023-03-05T00:03:51.028Z,8.64286
2023-03-05T00:04:51.015Z,9.71429
2023-03-05T00:05:51.056Z,9.92857
2023-03-05T00:06:51.088Z,10.4286
2023-03-05T00:07:51.114Z,9.42857
2023-03-05T00:08:51.145Z,8.21429
2023-03-05T00:09:51.175Z,9.35714
2023-03-05T00:10:51.218Z,6.85714
2023-03-05T00:11:51.273Z,9.5
2023-03-05T00:12:51.292Z,6.5
2023-03-05T00:13:51.321Z,8.5
2023-03-05T00:14:51.346Z,8.5
2023-03-05T00:15:51.427Z,8.42857
2023-03-05T00:16:51.422Z,8.21429
2023-03-05T00:17:51.458Z,9.42857
2023-03-05T00:18:51.493Z,9
2023-03-05T00:19:51.522Z,7.35714
2023-03-05T00:20:51.561Z,7
2023-03-05T00:21:51.590Z,7.71429
2023-03-05T00:22:51.650Z,7
2023-03-05T00:23:51.665Z,8.71429
2023-03-05T00:24:51.694Z,8.85714
2023-03-05T00:25:51.729Z,9.64286
2023-03-05T00:26:51.756Z,7.64286
2023-03-05T00:27:51.796Z,9.21429
2023-03-05T00:28:51.868Z,7.85714
2023-03-05T00:29:51.867Z,8.14286
2023-03-05T00:30:51.929Z,9.85714
2023-03-05T00:31:51.927Z,10.4286
2023-03-05T00:32:51.958Z,7.64286
2023-03-05T00:33:52.007Z,7.5
2023-03-05T00:34:52.051Z,6.35714
2023-03-05T00:35:52.151Z,6.5
2023-03-05T00:36:52.118Z,8.64286
2023-03-05T00:37:52.139Z,9
2023-03-05T00:38:52.180Z,5.92857
2023-03-05T00:39:52.220Z,8.85714
2023-03-05T00:40:52.244Z,6.64286
2023-03-05T00:41:52.277Z,7.42857
2023-03-05T00:42:52.302Z,6.64286
2023-03-05T00:43:52.334Z,6.85714
2023-03-05T00:44:52.373Z,7.42857
2023-03-05T00:45:52.449Z,7.85714
2023-03-05T00:46:52.500Z,6.71429
2023-03-05T00:47:52.474Z,6.85714
2023-03-05T00:48:52.535Z,6.5
2023-03-05T00:49:52.546Z,7.71429
2023-03-05T00:50:52.590Z,6.14286
2023-03-05T00:51:52.635Z,7.42857
2023-03-05T00:52:52.633Z,8.42857
2023-03-05T00:53:52.668Z,7.71429
2023-03-05T00:54:52.695Z,6.64286
2023-03-05T00:55:52.730Z,8.42857
2023-03-05T00:56:52.765Z,6.42857
2023-03-05T00:57:52.803Z,6.35714
2023-03-05T00:58:52.839Z,9.42857
2023-03-05T00:59:52.875Z,6.71429
2023-03-05T01:00:52.905Z,5.64286
2023-03-05T01:01:52.985Z,7.21429
2023-03-05T01:02:52.972Z,5.5
2023-03-05T01:03:53.007Z,6.5
2023-03-05T01:04:53.067Z,6
2023-03-05T01:05:53.059Z,7
2023-03-05T01:06:53.112Z,9.14286
2023-03-05T01:07:53.119Z,7.14286
2023-03-05T01:08:53.150Z,3.85714
2023-03-05T01:09:53.184Z,7.35714
2023-03-05T01:10:53.214Z,8.21429
2023-03-05T01:11:53.258Z,4.85714
2023-03-05T01:12:53.279Z,6.35714
2023-03-05T01:13:53.307Z,6.35714
2023-03-05T01:14:53.338Z,6.85714
2023-03-05T01:15:53.437Z,6.35714
2023-03-05T01:16:53.407Z,5.64286
2023-03-05T01:17:53.433Z,6.5
2023-03-05T01:18:53.474Z,6.21429
2023-03-05T01:19:53.507Z,6.85714
2023-03-05T01:20:53.538Z,6.85714
2023-03-05T01:21:53.572Z,5.42857
2023-03-05T01:22:53.612Z,6.21429
2023-03-05T01:23:53.650Z,7
2023-03-05T01:24:53.673Z,6.21429
2023-03-05T01:25:53.689Z,6.71429
2023-03-05T01:26:53.724Z,5.21429
2023-03-05T01:27:53.770Z,4.42857
2023-03-05T01:28:53.796Z,5.92857
2023-03-05T01:29:53.832Z,6
2023-03-05T01:30:53.869Z,5.14286
2023-03-05T01:31:53.941Z,5.35714
2023-03-05T01:32:53.937Z,7.35714
2023-03-05T01:33:53.969Z,4.42857
2023-03-05T01:34:53.990Z,3.71429
2023-03-05T01:35:54.106Z,5.71429
2023-03-05T01:36:54.054Z,5.21429
2023-03-05T01:37:54.107Z,6
2023-03-05T01:38:54.116Z,4
2023-03-05T01:39:54.153Z,4.35714
2023-03-05T01:40:54.196Z,5.21429
2023-03-05T01:41:54.227Z,7
2023-03-05T01:42:54.273Z,5.14286
2023-03-05T01:43:54.290Z,5.64286
2023-03-05T01:44:54.333Z,4.71429
2023-03-05T01:45:54.431Z,5.14286
2023-03-05T01:46:54.410Z,3.35714
2023-03-05T01:47:54.424Z,4.71429
2023-03-05T01:48:54.456Z,7.14286
2023-03-05T01:49:54.491Z,3.92857
2023-03-05T01:50:54.517Z,4.85714
2023-03-05T01:51:54.554Z,6.21429
2023-03-05T01:52:54.598Z,5
2023-03-05T01:53:54.618Z,5.21429
2023-03-05T01:54:54.666Z,5.71429
2023-03-05T01:55:56.235Z,5.14286
2023-03-05T01:56:54.729Z,5.21429
2023-03-05T01:57:54.752Z,4.71429
2023-03-05T01:58:54.774Z,5.92857
2023-03-05T01:59:54.815Z,5
2023-03-05T02:00:54.902Z,5
2023-03-05T02:01:54.869Z,4
2023-03-05T02:02:54.914Z,4.64286
2023-03-05T02:03:55.011Z,3.92857
2023-03-05T02:04:54.993Z,3.64286
2023-03-05T02:05:55.013Z,5.14286
2023-03-05T02:06:55.033Z,5
2023-03-05T02:07:55.069Z,4.35714
2023-03-05T02:08:55.112Z,3.71429
2023-03-05T02:09:55.149Z,3.92857
2023-03-05T02:10:55.199Z,4.21429
2023-03-05T02:11:55.229Z,5.64286
2023-03-05T02:12:55.252Z,3.42857
2023-03-05T02:13:55.292Z,4.92857
2023-03-05T02:14:55.325Z,6.92857
2023-03-05T02:15:55.351Z,5.5
2023-03-05T02:16:55.594Z,4.71429
2023-03-05T02:17:55.435Z,4.14286
2023-03-05T02:18:55.448Z,3
2023-03-05T02:19:55.481Z,4.21429
2023-03-05T02:20:55.522Z,5.21429
2023-03-05T02:21:55.554Z,6.85714
2023-03-05T02:22:55.594Z,7
2023-03-05T02:23:55.613Z,7.5
2023-03-05T02:24:55.639Z,3.71429
2023-03-05T02:25:55.675Z,3.92857
2023-03-05T02:26:55.706Z,5.21429
2023-03-05T02:27:55.772Z,6.42857
2023-03-05T02:28:55.786Z,4.14286
2023-03-05T02:29:55.824Z,4.14286
2023-03-05T02:30:55.844Z,4.14286
2023-03-05T02:31:55.943Z,5.42857
2023-03-05T02:32:55.916Z,4.21429
2023-03-05T02:33:55.952Z,5.5
2023-03-05T02:34:55.992Z,5.85714
2023-03-05T02:35:56.100Z,5.42857
2023-03-05T02:36:56.058Z,4.42857
2023-03-05T02:37:56.084Z,4.35714
2023-03-05T02:38:56.109Z,3.64286
2023-03-05T02:39:56.143Z,5.21429
2023-03-05T02:40:56.192Z,4.42857
2023-03-05T02:41:56.228Z,4.71429
2023-03-05T02:42:56.242Z,5.42857
2023-03-05T02:43:56.282Z,6.71429
2023-03-05T02:44:56.319Z,5.42857
2023-03-05T02:45:56.388Z,4.85714
2023-03-05T02:46:56.398Z,5.64286
2023-03-05T02:47:56.427Z,4.21429
2023-03-05T02:48:56.461Z,5
2023-03-05T02:49:56.532Z,5.5
2023-03-05T02:50:56.523Z,5.42857
2023-03-05T02:51:56.550Z,4.64286
2023-03-05T02:52:56.592Z,3.85714
2023-03-05T02:53:56.628Z,5.5
2023-03-05T02:54:56.668Z,5.92857
2023-03-05T02:55:56.695Z,5.64286
2023-03-05T02:56:56.741Z,5.21429
2023-03-05T02:57:56.767Z,4.92857
2023-03-05T02:58:56.809Z,5.35714
2023-03-05T02:59:56.946Z,3.42857
2023-03-05T03:00:56.916Z,5.5
2023-03-05T03:01:56.917Z,4
2023-03-05T03:02:56.956Z,4.35714
2023-03-05T03:03:56.970Z,5.64286
2023-03-05T03:04:57.014Z,5.5
2023-03-05T03:05:57.046Z,5.21429
2023-03-05T03:06:57.087Z,4.42857
2023-03-05T03:07:57.111Z,4.14286
2023-03-05T03:08:57.152Z,5.35714
2023-03-05T03:09:57.188Z,4.42857
2023-03-05T03:10:57.217Z,4.71429
2023-03-05T03:11:57.260Z,5.71429
2023-03-05T03:12:57.289Z,5.14286
2023-03-05T03:13:57.315Z,4.21429
2023-03-05T03:14:57.348Z,5.14286
2023-03-05T03:15:57.386Z,4.35714
2023-03-05T03:16:57.451Z,4.64286
2023-03-05T03:17:57.450Z,6.14286
2023-03-05T03:18:57.509Z,4.21429
2023-03-05T03:19:57.517Z,4.35714
2023-03-05T03:20:57.567Z,4.64286
2023-03-05T03:21:57.591Z,3.35714
2023-03-05T03:22:57.630Z,4.42857
2023-03-05T03:23:57.666Z,3.85714
2023-03-05T03:24:57.693Z,4.42857
2023-03-05T03:25:57.713Z,4.5
2023-03-05T03:26:57.744Z,4.14286
2023-03-05T03:27:57.783Z,4.85714
2023-03-05T03:28:57.813Z,6.14286
2023-03-05T03:29:57.859Z,4.64286
2023-03-05T03:30:57.901Z,4.42857
2023-03-05T03:31:57.926Z,2.85714
2023-03-05T03:32:57.935Z,4.64286
2023-03-05T03:33:57.968Z,4.5
2023-03-05T03:34:58.019Z,3.85714
2023-03-05T03:35:58.145Z,3.85714
2023-03-05T03:36:58.079Z,5.35714
2023-03-05T03:37:58.111Z,4.42857
2023-03-05T03:38:58.149Z,5.14286
2023-03-05T03:39:58.200Z,3.14286
2023-03-05T03:40:58.222Z,4.35714
2023-03-05T03:41:58.251Z,4.35714
2023-03-05T03:42:58.281Z,4
2023-03-05T03:43:58.321Z,4.14286
2023-03-05T03:44:58.362Z,2.92857
2023-03-05T03:45:58.420Z,2.92857
2023-03-05T03:46:58.417Z,5
2023-03-05T03:47:58.459Z,6.35714
2023-03-05T03:48:58.498Z,5.21429
2023-03-05T03:49:58.531Z,3.92857
2023-03-05T03:50:58.574Z,4.64286
2023-03-05T03:51:58.598Z,5.64286
2023-03-05T03:52:58.624Z,5.64286
2023-03-05T03:53:58.665Z,3.21429
2023-03-05T03:54:58.684Z,6.5
2023-03-05T03:55:58.738Z,3.85714
2023-03-05T03:56:58.763Z,6.85714
2023-03-05T03:57:58.804Z,3.5
2023-03-05T03:58:58.836Z,4
2023-03-05T03:59:58.872Z,3.85714
2023-03-05T04:00:58.945Z,4.21429
2023-03-05T04:01:58.946Z,2.64286
2023-03-05T04:02:58.976Z,4.85714
2023-03-05T04:03:59.058Z,4.21429
2023-03-05T04:04:59.049Z,4.21429
2023-03-05T04:05:59.084Z,3.42857
2023-03-05T04:06:59.108Z,3.85714
2023-03-05T04:07:59.156Z,5.21429
2023-03-05T04:08:59.180Z,5.21429
2023-03-05T04:09:59.214Z,5.21429
2023-03-05T04:10:59.240Z,4.21429
2023-03-05T04:11:59.269Z,3.42857
2023-03-05T04:12:59.321Z,3.64286
2023-03-05T04:13:59.342Z,4.21429
2023-03-05T04:14:59.363Z,5.85714
2023-03-05T04:15:59.447Z,4.85714
2023-03-05T04:16:59.440Z,5.64286
2023-03-05T04:17:59.473Z,4.71429
2023-03-05T04:18:59.504Z,4.35714
2023-03-05T04:19:59.565Z,3.85714
2023-03-05T04:20:59.564Z,3.92857
2023-03-05T04:21:59.609Z,6.92857
2023-03-05T04:22:59.640Z,4.14286
2023-03-05T04:23:59.680Z,3
2023-03-05T04:24:59.728Z,4.92857
2023-03-05T04:25:59.777Z,4.5
2023-03-05T04:26:59.790Z,4.35714
2023-03-05T04:27:59.817Z,2.85714
2023-03-05T04:28:59.852Z,4.5
2023-03-05T04:29:59.888Z,5.14286
2023-03-05T04:30:59.981Z,4.42857
2023-03-05T04:32:00.039Z,5
2023-03-05T04:32:59.993Z,3.21429
2023-03-05T04:34:00.030Z,4.71429
2023-03-05T04:35:00.061Z,6.42857
2023-03-05T04:36:00.125Z,6.5
2023-03-05T04:37:00.141Z,5
2023-03-05T04:38:00.167Z,3.71429
2023-03-05T04:39:00.200Z,3.92857
2023-03-05T04:40:00.266Z,3.42857
2023-03-05T04:41:00.289Z,4.35714
2023-03-05T04:42:00.310Z,2.5
2023-03-05T04:43:00.370Z,4.71429
2023-03-05T04:44:00.388Z,5
2023-03-05T04:45:00.417Z,4.5
2023-03-05T04:46:00.493Z,3.21429
2023-03-05T04:47:00.489Z,5.35714
2023-03-05T04:48:00.537Z,4.71429
2023-03-05T04:49:00.562Z,3.71429
2023-03-05T04:50:00.603Z,3.71429
2023-03-05T04:51:00.624Z,4.64286
2023-03-05T04:52:00.651Z,4.21429
2023-03-05T04:53:00.727Z,4.42857
2023-03-05T04:54:00.733Z,5
2023-03-05T04:55:00.770Z,2.92857
2023-03-05T04:56:00.795Z,4.64286
2023-03-05T04:57:00.831Z,4.42857
2023-03-05T04:58:00.870Z,4.35714
2023-03-05T04:59:00.899Z,4.71429
2023-03-05T05:00:00.933Z,5.64286
2023-03-05T05:01:00.962Z,2.85714
2023-03-05T05:02:01.039Z,5.42857
2023-03-05T05:03:01.116Z,5.14286
2023-03-05T05:04:01.057Z,4.21429
2023-03-05T05:05:01.106Z,5.5
2023-03-05T05:06:01.128Z,5.64286
2023-03-05T05:07:01.192Z,3.64286
2023-03-05T05:08:01.210Z,3.85714
2023-03-05T05:09:01.247Z,4.42857
2023-03-05T05:10:01.291Z,6.5
2023-03-05T05:11:01.331Z,4.85714
2023-03-05T05:12:01.351Z,4.71429
2023-03-05T05:13:01.415Z,3.64286
2023-03-05T05:14:01.442Z,3
2023-03-05T05:15:01.468Z,4
2023-03-05T05:16:01.565Z,4.64286
2023-03-05T05:17:01.540Z,6.92857
2023-03-05T05:18:01.602Z,4.42857
2023-03-05T05:19:01.654Z,2.64286
2023-03-05T05:20:01.686Z,3.92857
2023-03-05T05:21:01.676Z,3
2023-03-05T05:22:01.706Z,4.42857
2023-03-05T05:23:01.752Z,5.42857
2023-03-05T05:24:01.780Z,3.64286
2023-03-05T05:25:01.820Z,5.42857
2023-03-05T05:26:01.853Z,5.35714
2023-03-05T05:27:01.883Z,5.14286
2023-03-05T05:28:01.914Z,3.14286
2023-03-05T05:29:01.957Z,3.92857
2023-03-05T05:30:02.021Z,5.85714
2023-03-05T05:31:02.025Z,4.42857
2023-03-05T05:32:02.113Z,3.71429
2023-03-05T05:33:02.082Z,4.14286
2023-03-05T05:34:02.127Z,4.21429
2023-03-05T05:35:02.162Z,3.42857
2023-03-05T05:36:02.186Z,4.71429
2023-03-05T05:37:02.227Z,5.42857
2023-03-05T05:38:02.265Z,4.35714
2023-03-05T05:39:02.294Z,4.64286
2023-03-05T05:40:02.325Z,4.71429
2023-03-05T05:41:02.364Z,5.85714
2023-03-05T05:42:02.398Z,2.71429
2023-03-05T05:43:02.437Z,3.64286
2023-03-05T05:44:02.489Z,4.64286
2023-03-05T05:45:02.508Z,5
2023-03-05T05:46:02.611Z,4.21429
2023-03-05T05:47:02.565Z,4.5
2023-03-05T05:48:02.609Z,5.21429
2023-03-05T05:49:02.637Z,5.85714
2023-03-05T05:50:02.679Z,4.71429
2023-03-05T05:51:02.702Z,5.14286
2023-03-05T05:52:02.747Z,4.92857
2023-03-05T05:53:02.791Z,3.85714
2023-03-05T05:54:02.832Z,5.14286
2023-03-05T05:55:02.863Z,5.21429
2023-03-05T05:56:02.883Z,3.5
2023-03-05T05:57:02.921Z,4.21429
2023-03-05T05:58:02.955Z,4.35714
2023-03-05T05:59:02.994Z,3.5
2023-03-05T06:00:03.032Z,5
2023-03-05T06:01:03.077Z,5.14286
2023-03-05T06:02:03.133Z,3
2023-03-05T06:03:03.177Z,3.5
2023-03-05T06:04:03.166Z,3.85714
2023-03-05T06:05:03.203Z,5.64286
2023-03-05T06:06:03.233Z,6.21429
2023-03-05T06:07:03.259Z,4.92857
2023-03-05T06:08:03.305Z,3.35714
2023-03-05T06:09:03.349Z,5.64286
2023-03-05T06:10:03.382Z,4.92857
2023-03-05T06:11:03.423Z,5.85714
2023-03-05T06:12:03.460Z,7.21429
2023-03-05T06:13:03.491Z,6.92857
2023-03-05T06:14:03.523Z,5.5
2023-03-05T06:15:03.568Z,4.21429
2023-03-05T06:16:03.601Z,4.85714
2023-03-05T06:17:03.638Z,4.35714
2023-03-05T06:18:03.672Z,6
2023-03-05T06:19:04.346Z,3.21429
2023-03-05T06:20:03.741Z,5.21429
2023-03-05T06:21:03.776Z,3.64286
2023-03-05T06:22:03.808Z,3.42857
2023-03-05T06:23:03.858Z,3.35714
2023-03-05T06:24:03.860Z,4.64286
2023-03-05T06:25:03.895Z,4
2023-03-05T06:26:03.929Z,5.92857
2023-03-05T06:27:03.968Z,4.21429
2023-03-05T06:28:04.004Z,6.14286
2023-03-05T06:29:04.035Z,4.71429
2023-03-05T06:30:04.066Z,3.35714
2023-03-05T06:31:04.158Z,5.71429
2023-03-05T06:32:04.183Z,5.14286
2023-03-05T06:33:04.163Z,6.64286
2023-03-05T06:34:04.209Z,5.42857
2023-03-05T06:35:04.245Z,3.14286
2023-03-05T06:36:04.272Z,2.92857
2023-03-05T06:37:04.306Z,4
2023-03-05T06:38:04.340Z,3.92857
2023-03-05T06:39:04.373Z,4.21429
2023-03-05T06:40:04.411Z,3.71429
2023-03-05T06:41:04.439Z,4.5
2023-03-05T06:42:04.486Z,4.64286
2023-03-05T06:43:04.507Z,4
2023-03-05T06:44:04.547Z,3.85714
2023-03-05T06:45:04.570Z,3.35714
2023-03-05T06:46:04.759Z,6.35714
2023-03-05T06:47:04.654Z,2.92857
2023-03-05T06:48:04.684Z,3.85714
2023-03-05T06:49:04.714Z,3.64286
2023-03-05T06:50:04.756Z,4.42857
2023-03-05T06:51:04.790Z,5.21429
2023-03-05T06:52:04.828Z,3.85714
2023-03-05T06:53:04.858Z,2.92857
2023-03-05T06:54:04.891Z,2.5
2023-03-05T06:55:04.922Z,4
2023-03-05T06:56:04.959Z,3.14286
2023-03-05T06:57:05.007Z,5
2023-03-05T06:58:05.025Z,3.35714
2023-03-05T06:59:05.074Z,4
2023-03-05T07:00:05.090Z,3.85714
2023-03-05T07:01:05.143Z,5
2023-03-05T07:02:05.187Z,3.85714
2023-03-05T07:03:05.179Z,3.42857
2023-03-05T07:04:05.223Z,5.5
2023-03-05T07:05:05.260Z,4.92857
2023-03-05T07:06:05.283Z,4.5
2023-03-05T07:07:05.324Z,3.35714
2023-03-05T07:08:05.354Z,3.21429
2023-03-05T07:09:05.390Z,3.92857
2023-03-05T07:10:05.415Z,3.92857
2023-03-05T07:11:05.468Z,3.42857
2023-03-05T07:12:05.492Z,3.42857
2023-03-05T07:13:05.524Z,3.64286
2023-03-05T07:14:05.570Z,3.71429
2023-03-05T07:15:05.599Z,3.64286
2023-03-05T07:16:05.727Z,4.5
2023-03-05T07:17:05.683Z,4.14286
2023-03-05T07:18:05.706Z,3.21429
2023-03-05T07:19:05.742Z,3.71429
2023-03-05T07:20:05.762Z,2.5
2023-03-05T07:21:05.800Z,2.92857
2023-03-05T07:22:05.831Z,3.5
2023-03-05T07:23:05.865Z,3.85714
2023-03-05T07:24:05.901Z,3.71429
2023-03-05T07:25:05.938Z,3
2023-03-05T07:26:05.971Z,3.71429
2023-03-05T07:27:06.012Z,2.85714
2023-03-05T07:28:06.059Z,4
2023-03-05T07:29:06.104Z,2.92857
2023-03-05T07:30:06.101Z,3.85714
2023-03-05T07:31:06.272Z,4.42857
2023-03-05T07:32:06.220Z,6.21429
2023-03-05T07:33:06.198Z,4.85714
2023-03-05T07:34:06.227Z,3.71429
2023-03-05T07:35:06.270Z,3.85714
2023-03-05T07:36:06.305Z,4.71429
2023-03-05T07:37:06.338Z,3.21429
2023-03-05T07:38:06.382Z,4.14286
2023-03-05T07:39:06.469Z,2.85714
2023-03-05T07:40:06.427Z,4.92857
2023-03-05T07:41:06.463Z,4
2023-03-05T07:42:06.535Z,3.64286
2023-03-05T07:43:06.535Z,3
2023-03-05T07:44:06.575Z,3.14286
2023-03-05T07:45:06.599Z,3.64286
2023-03-05T07:46:06.666Z,2.14286
2023-03-05T07:47:06.658Z,3.85714
2023-03-05T07:48:06.689Z,3.21429
2023-03-05T07:49:06.732Z,2.71429
2023-03-05T07:50:06.772Z,3.14286
2023-03-05T07:51:06.812Z,2.85714
2023-03-05T07:52:06.838Z,3.21429
2023-03-05T07:53:06.869Z,3.85714
2023-03-05T07:54:06.906Z,2.85714
2023-03-05T07:55:06.943Z,3.14286
2023-03-05T07:56:06.977Z,5
2023-03-05T07:57:07.015Z,3.5
2023-03-05T07:58:07.057Z,3
2023-03-05T07:59:07.122Z,2.85714
2023-03-05T08:00:07.120Z,2.71429
2023-03-05T08:01:07.142Z,3.71429
2023-03-05T08:02:07.242Z,4.64286
2023-03-05T08:03:07.224Z,3.85714
2023-03-05T08:04:07.311Z,5.21429
2023-03-05T08:05:07.322Z,2.92857
2023-03-05T08:06:07.325Z,3.21429
2023-03-05T08:07:07.355Z,4.21429
2023-03-05T08:08:07.399Z,3.35714
2023-03-05T08:09:07.448Z,4
2023-03-05T08:10:07.474Z,3.21429
2023-03-05T08:11:07.511Z,2.14286
2023-03-05T08:12:07.543Z,3.21429
2023-03-05T08:13:07.571Z,2.92857
2023-03-05T08:14:07.599Z,3.92857
2023-03-05T08:15:07.633Z,3.71429
2023-03-05T08:16:07.755Z,2.92857
2023-03-05T08:17:07.708Z,4.5
2023-03-05T08:18:07.727Z,2.21429
2023-03-05T08:19:07.776Z,3.5
2023-03-05T08:20:07.807Z,2.64286
2023-03-05T08:21:07.837Z,2.42857
2023-03-05T08:22:07.878Z,3.14286
2023-03-05T08:23:07.910Z,3.35714
2023-03-05T08:24:07.933Z,3.5
2023-03-05T08:25:07.966Z,3.35714
2023-03-05T08:26:08.003Z,2.71429
2023-03-05T08:27:08.036Z,4.92857
2023-03-05T08:28:08.065Z,3
2023-03-05T08:29:08.104Z,3.21429
2023-03-05T08:30:08.152Z,2.35714
2023-03-05T08:31:08.198Z,4.21429
2023-03-05T08:32:08.278Z,2.5
2023-03-05T08:33:08.256Z,3
2023-03-05T08:34:08.296Z,3.64286
2023-03-05T08:35:08.331Z,3.5
2023-03-05T08:36:08.360Z,4.64286
2023-03-05T08:37:08.391Z,3.21429
2023-03-05T08:38:08.441Z,2.71429
2023-03-05T08:39:08.467Z,3.5
2023-03-05T08:40:08.534Z,2.85714
2023-03-05T08:41:08.638Z,2.14286
2023-03-05T08:42:09.062Z,3.71429
2023-03-05T08:43:08.615Z,3.14286
2023-03-05T08:44:08.646Z,4.14286
2023-03-05T08:45:08.669Z,3.5
2023-03-05T08:46:08.817Z,4.64286
2023-03-05T08:47:08.742Z,2.14286
2023-03-05T08:48:08.793Z,4.21429
2023-03-05T08:49:08.812Z,3.85714
2023-03-05T08:50:08.850Z,3.64286
2023-03-05T08:51:08.871Z,2.71429
2023-03-05T08:52:08.904Z,3.85714
2023-03-05T08:53:08.955Z,2.71429
2023-03-05T08:54:08.975Z,3.64286
2023-03-05T08:55:09.007Z,3.35714
2023-03-05T08:56:09.040Z,2.5
2023-03-05T08:57:09.074Z,3
2023-03-05T08:58:09.121Z,2.14286
2023-03-05T08:59:09.147Z,3.35714
2023-03-05T09:00:09.187Z,3
2023-03-05T09:01:09.210Z,2.35714
2023-03-05T09:02:09.323Z,3.92857
2023-03-05T09:03:09.377Z,2.85714
2023-03-05T09:04:09.315Z,2.92857
2023-03-05T09:05:09.342Z,3.64286
2023-03-05T09:06:09.373Z,3.5
2023-03-05T09:07:09.410Z,3.35714
2023-03-05T09:08:09.440Z,3.21429
2023-03-05T09:09:09.504Z,5.21429
2023-03-05T09:10:09.519Z,5
2023-03-05T09:11:09.572Z,3.64286
2023-03-05T09:12:12.010Z,5.21429
2023-03-05T09:13:09.631Z,4
2023-03-05T09:14:09.684Z,3.21429
2023-03-05T09:15:09.694Z,3.71429
2023-03-05T09:16:09.780Z,3.5
2023-03-05T09:17:09.754Z,3.5
2023-03-05T09:18:09.785Z,3.92857
2023-03-05T09:19:09.806Z,3.64286
2023-03-05T09:20:09.852Z,4.21429
2023-03-05T09:21:09.872Z,3.71429
2023-03-05T09:22:09.902Z,2.71429
2023-03-05T09:23:09.939Z,2.21429
2023-03-05T09:24:09.970Z,3.42857
2023-03-05T09:25:10.005Z,2.64286
2023-03-05T09:26:10.040Z,4.5
2023-03-05T09:27:10.068Z,3.35714
2023-03-05T09:28:10.107Z,4.35714
2023-03-05T09:29:10.142Z,6
2023-03-05T09:30:10.180Z,5.5
2023-03-05T09:31:10.223Z,12.2143
2023-03-05T09:32:10.371Z,6.42857
2023-03-05T09:33:10.279Z,13.5
2023-03-05T09:34:10.342Z,8.21429
2023-03-05T09:35:10.358Z,6.14286
2023-03-05T09:36:10.393Z,4.14286
2023-03-05T09:37:10.435Z,3.21429
2023-03-05T09:38:10.485Z,5.92857
2023-03-05T09:39:10.515Z,6.42857
2023-03-05T09:40:10.567Z,5.71429
2023-03-05T09:41:10.574Z,7.35714
2023-03-05T09:42:10.606Z,10.9286
2023-03-05T09:43:10.667Z,5
2023-03-05T09:44:10.680Z,4.64286
2023-03-05T09:45:10.774Z,4.42857
2023-03-05T09:46:10.827Z,6
2023-03-05T09:47:10.807Z,5.35714
2023-03-05T09:48:10.829Z,4.92857
2023-03-05T09:49:10.852Z,3.21429
2023-03-05T09:50:10.884Z,3.14286
2023-03-05T09:51:10.920Z,4.71429
2023-03-05T09:52:10.948Z,4.35714
2023-03-05T09:53:11.002Z,3.42857
2023-03-05T09:54:11.031Z,4.5
2023-03-05T09:55:11.062Z,3.42857
2023-03-05T09:56:11.083Z,4.14286
2023-03-05T09:57:11.122Z,4.85714
2023-03-05T09:58:11.155Z,4.21429
2023-03-05T09:59:11.190Z,3.71429
2023-03-05T10:00:11.218Z,7.92857
2023-03-05T10:01:11.286Z,5.42857
2023-03-05T10:02:11.282Z,5.35714
2023-03-05T10:03:11.328Z,5
2023-03-05T10:04:11.421Z,4.92857
2023-03-05T10:05:11.392Z,5.14286
2023-03-05T10:06:11.416Z,2.71429
2023-03-05T10:07:11.461Z,4.85714
2023-03-05T10:08:11.488Z,3.85714
2023-03-05T10:09:11.583Z,4.14286
2023-03-05T10:10:11.548Z,5.64286
2023-03-05T10:11:11.581Z,3.42857
2023-03-05T10:12:11.618Z,2.92857
2023-03-05T10:13:11.659Z,2.71429
2023-03-05T10:14:11.721Z,3.5
2023-03-05T10:15:11.720Z,5.64286
2023-03-05T10:16:11.809Z,2.64286
2023-03-05T10:17:11.787Z,3.85714
2023-03-05T10:18:11.830Z,2.71429
2023-03-05T10:19:11.889Z,3
2023-03-05T10:20:11.901Z,3.71429
2023-03-05T10:21:11.915Z,2.35714
2023-03-05T10:22:11.946Z,3.42857
2023-03-05T10:23:12.059Z,3.14286
2023-03-05T10:24:12.009Z,2.42857
2023-03-05T10:25:12.049Z,3.14286
2023-03-05T10:26:12.081Z,3.14286
2023-03-05T10:27:12.167Z,3.21429
2023-03-05T10:28:12.154Z,3.64286
2023-03-05T10:29:12.190Z,3.92857
2023-03-05T10:30:12.228Z,3
2023-03-05T10:31:12.270Z,4.21429
2023-03-05T10:32:12.429Z,3.42857
2023-03-05T10:33:12.351Z,2.21429
2023-03-05T10:34:12.418Z,3.42857
2023-03-05T10:35:12.398Z,3.42857
2023-03-05T10:36:12.433Z,3.35714
2023-03-05T10:37:12.468Z,2.64286
2023-03-05T10:38:12.504Z,3.14286
2023-03-05T10:39:12.620Z,2.64286
2023-03-05T10:40:12.566Z,2.35714
2023-03-05T10:41:12.607Z,2.35714
2023-03-05T10:42:12.648Z,2.85714
2023-03-05T10:43:12.669Z,3.92857
2023-03-05T10:44:12.736Z,2.35714
2023-03-05T10:45:14.132Z,2.14286
2023-03-05T10:46:12.855Z,2.42857
2023-03-05T10:47:12.812Z,2.64286
2023-03-05T10:48:12.831Z,1.92857
2023-03-05T10:49:12.867Z,3.35714
2023-03-05T10:50:12.914Z,3.71429
2023-03-05T10:51:12.916Z,2.71429
2023-03-05T10:52:12.949Z,2.35714
2023-03-05T10:53:12.977Z,3.85714
2023-03-05T10:54:13.013Z,2.64286
2023-03-05T10:55:13.055Z,2.5
2023-03-05T10:56:13.074Z,5.14286
2023-03-05T10:57:13.123Z,3.21429
2023-03-05T10:58:13.160Z,2.35714
2023-03-05T10:59:13.188Z,4.14286
2023-03-05T11:00:13.232Z,2.5
2023-03-05T11:01:13.273Z,2.35714
2023-03-05T11:02:13.326Z,3.21429
2023-03-05T11:03:13.313Z,2.21429
2023-03-05T11:04:13.345Z,2.35714
2023-03-05T11:05:13.382Z,2.21429
2023-03-05T11:06:13.413Z,3.42857
2023-03-05T11:07:13.444Z,2.42857
2023-03-05T11:08:13.481Z,2.5
2023-03-05T11:09:13.512Z,2.92857
2023-03-05T11:10:13.560Z,4
2023-03-05T11:11:13.575Z,2.71429
2023-03-05T11:12:13.628Z,3.92857
2023-03-05T11:13:13.657Z,4.92857
2023-03-05T11:14:13.688Z,2.35714
2023-03-05T11:15:13.724Z,3.35714
2023-03-05T11:16:13.786Z,2.85714
2023-03-05T11:17:13.794Z,3.21429
2023-03-05T11:18:13.820Z,3.14286
2023-03-05T11:19:13.859Z,3.85714
2023-03-05T11:20:13.885Z,3.42857
2023-03-05T11:21:13.920Z,2.71429
2023-03-05T11:22:13.952Z,4.21429
2023-03-05T11:23:13.976Z,2.92857
2023-03-05T11:24:14.029Z,3.42857
2023-03-05T11:25:14.046Z,3.64286
2023-03-05T11:26:14.077Z,3.92857
2023-03-05T11:27:14.132Z,2.5
2023-03-05T11:28:17.089Z,4.42857
2023-03-05T11:29:14.175Z,3.71429
2023-03-05T11:30:14.206Z,3.71429
2023-03-05T11:31:14.284Z,3.5
2023-03-05T11:32:14.297Z,2.92857
2023-03-05T11:33:14.310Z,3.42857
2023-03-05T11:34:14.327Z,4.85714
2023-03-05T11:35:14.370Z,2.64286
2023-03-05T11:36:14.404Z,4.21429
2023-03-05T11:37:14.435Z,3.64286
2023-03-05T11:38:14.489Z,3.14286
2023-03-05T11:39:14.519Z,3.5
2023-03-05T11:40:14.555Z,4.14286
2023-03-05T11:41:14.608Z,2.71429
2023-03-05T11:42:14.616Z,4.14286
2023-03-05T11:43:14.648Z,2.85714
2023-03-05T11:44:14.702Z,3.5
2023-03-05T11:45:14.727Z,3.14286
2023-03-05T11:46:14.863Z,3.5
2023-03-05T11:47:14.790Z,5.5
2023-03-05T11:48:14.839Z,4
2023-03-05T11:49:14.869Z,3.5
2023-03-05T11:50:14.910Z,3.92857
2023-03-05T11:51:14.942Z,3
2023-03-05T11:52:14.965Z,4.71429
2023-03-05T11:53:14.993Z,4.92857
2023-03-05T11:54:15.023Z,4
2023-03-05T11:55:15.059Z,3.92857
2023-03-05T11:56:16.487Z,4.71429
2023-03-05T11:57:15.127Z,3.35714
2023-03-05T11:58:15.161Z,4.71429
2023-03-05T11:59:15.193Z,6.64286
2023-03-05T12:00:15.246Z,5.42857
2023-03-05T12:01:15.263Z,5.21429
2023-03-05T12:02:16.334Z,4.5
2023-03-05T12:03:15.329Z,4
2023-03-05T12:04:15.360Z,3.92857
2023-03-05T12:05:15.391Z,3.42857
2023-03-05T12:06:15.429Z,4.71429
2023-03-05T12:07:15.471Z,3.85714
2023-03-05T12:08:15.501Z,3.64286
2023-03-05T12:09:15.534Z,3.35714
2023-03-05T12:10:15.636Z,4.21429
2023-03-05T12:11:15.597Z,4.64286
2023-03-05T12:12:15.623Z,4.42857
2023-03-05T12:13:15.663Z,2.85714
2023-03-05T12:14:15.700Z,3.5
2023-03-05T12:15:15.735Z,4.14286
2023-03-05T12:16:15.820Z,5.71429
2023-03-05T12:17:15.796Z,5.5
2023-03-05T12:18:15.831Z,3
2023-03-05T12:19:18.379Z,4.14286
2023-03-05T12:20:16.030Z,3.14286
2023-03-05T12:21:15.940Z,3.5
2023-03-05T12:22:15.972Z,3.92857
2023-03-05T12:23:16.005Z,4.92857
2023-03-05T12:24:16.030Z,4
2023-03-05T12:25:16.072Z,4
2023-03-05T12:26:16.098Z,3.35714
2023-03-05T12:27:16.127Z,3.71429
2023-03-05T12:28:16.170Z,4.14286